Hovedside
METAR-TAF:

METAR-TAF

Lufthavner :

Bradshaw Army Air Field

Bradshaw, Hawaii, USA

breddegrad: 19-47N, lengdegrad: 155-33W, høyde over havet: 1887 m

Gjeldene værobservasjon

Denne rapporten ble laget for 7 timer og 15 minutter siden, klokken 19:55 UTC
Vind 5 kt fra Sør-sørvest
Temperatur 23°C
Luftfuktighet 31%
Trykk 1028 hPa
Sikt: 16.1 km
Skyfri himmel

METAR: PHSF 191955Z AUTO 20005KT 10SM CLR 23/05 A3037 RMK AO2 SLP155 T02280052 $

Tid: 17:10 (03:10 UTC)


TAF: fraværende

Værobservasjoner og værvarsel for over 4000 flyplasser (METAR- og TAF-rapporter).

Tilgjengelige stasjoner er representert av de røde og gule prikkene på kartet.

Hold musepekeren over prikken for å se navnet på stasjonen.

Klikk så for å se værobservasjoner og -varsler.

For å forandre kartet kan du klikke på den grønne knappen med svart kryss for å zoome inn, på den grønne knappen med strek for å zoome ut, eller på de grønne pilene for å se tilstøtende kart.


METAR-TAF: